Time;durP1;ratioP1;P1;durP2;ratioP2;P2;SDS_P1;SDS_P2;PMS_P1;PMS_P2;Temp;Humidity;BMP_temperature;BMP_pressure;BME280_temperature;BME280_humidity;BME280_pressure;Samples;Min_cycle;Max_cycle;Signal;HPM_P1;HPM_P2
2024/04/23 00:00:20;;;;;;;18.08;8.57;;;-2.50;99.90;;;-144.05;80.61;57052.75;5404466;26;19997;-81
2024/04/23 00:02:46;;;;;;;10.65;7.70;;;-2.10;99.90;;;-144.05;80.82;57025.13;5364920;26;20428;-81
2024/04/23 00:05:12;;;;;;;13.65;7.65;;;;;;;-144.05;80.58;57029.38;5382192;26;20013;-81
2024/04/23 00:07:38;;;;;;;11.70;6.85;;;;;;;-144.05;80.78;57054.88;5382132;26;20000;-82
2024/04/23 00:10:05;;;;;;;13.60;7.50;;;-2.70;99.90;;;-144.05;81.07;57033.63;5382076;26;19996;-84
2024/04/23 00:12:30;;;;;;;14.07;8.18;;;-3.20;99.90;;;-144.05;81.22;57059.09;5382958;26;20004;-81
2024/04/23 00:14:57;;;;;;;16.17;8.10;;;;;;;-144.05;81.61;57044.25;5382638;26;20000;-84
2024/04/23 00:17:22;;;;;;;13.18;8.68;;;-3.00;99.90;;;-144.05;81.66;57078.22;5381083;26;19997;-83
2024/04/23 00:19:48;;;;;;;16.48;8.95;;;-3.20;99.90;;;-144.05;81.53;57063.34;5387301;26;20028;-82
2024/04/23 00:22:14;;;;;;;14.27;9.25;;;;;;;-144.05;81.89;57033.63;5422440;26;20000;-82
2024/04/23 00:24:41;;;;;;;15.98;9.02;;;;;;;-144.05;81.84;57056.97;5382882;26;20473;-83
2024/04/23 00:27:07;;;;;;;14.65;9.30;;;-3.10;99.90;;;-144.05;82.04;57054.88;5381167;26;20000;-84
2024/04/23 00:29:33;;;;;;;15.18;8.65;;;-2.60;99.90;;;-144.05;82.01;57048.50;5382785;26;20115;-84
2024/04/23 00:31:59;;;;;;;13.77;8.98;;;;;;;-144.05;81.90;57042.13;5382608;26;20015;-84
2024/04/23 00:34:28;;;;;;;14.25;9.15;;;0.70;99.90;;;-144.05;82.06;57059.09;5382030;26;20000;-82
2024/04/23 00:36:59;;;;;;;12.65;9.10;;;-2.80;99.90;;;-144.05;81.96;57035.75;5380458;26;20335;-82
2024/04/23 00:39:26;;;;;;;17.27;9.43;;;-2.80;99.90;;;-144.05;82.10;57063.34;5373938;26;20005;-82
2024/04/23 00:41:55;;;;;;;14.65;8.80;;;-3.20;99.90;;;-144.05;82.06;57052.75;5376984;26;20077;-82
2024/04/23 00:44:21;;;;;;;13.20;8.32;;;-2.80;99.90;;;-144.05;82.27;57050.63;5363448;26;20029;-83
2024/04/23 00:46:48;;;;;;;17.35;10.10;;;-2.90;99.90;;;-144.05;82.24;57046.38;5374484;26;20446;-83
2024/04/23 00:49:17;;;;;;;15.43;9.25;;;1.90;99.90;;;-144.05;82.21;57056.97;5382185;26;20028;-83
2024/04/23 00:51:50;;;;;;;15.85;9.45;;;0.60;99.90;;;-144.05;82.35;57061.22;5379889;26;20000;-82
2024/04/23 00:54:21;;;;;;;13.85;9.07;;;2.10;99.90;;;-144.05;82.52;57059.09;5377150;26;19996;-83
2024/04/23 00:56:48;;;;;;;13.90;9.10;;;-3.10;99.90;;;-144.05;82.27;57031.50;5381999;26;19996;-83
2024/04/23 00:59:17;;;;;;;16.65;9.60;;;0.70;99.90;;;-144.05;82.79;57029.38;5379883;26;20005;-83
2024/04/23 01:01:49;;;;;;;14.85;8.95;;;-2.80;99.90;;;-144.05;82.62;57027.25;5381687;26;20443;-82
2024/04/23 01:04:16;;;;;;;13.82;9.35;;;;;;;-144.05;82.66;57029.38;5403356;26;20082;-81
2024/04/23 01:06:42;;;;;;;15.65;10.38;;;;;;;-144.05;82.84;57031.50;5375634;26;20000;-80
2024/04/23 01:09:09;;;;;;;15.85;9.63;;;-2.70;99.90;;;-144.05;82.61;57027.25;5379593;26;20020;-81
2024/04/23 01:11:36;;;;;;;18.60;11.02;;;-2.90;99.90;;;-144.05;82.82;57048.50;5381550;26;20154;-81
2024/04/23 01:14:04;;;;;;;14.75;9.85;;;-3.00;99.90;;;-144.05;82.76;57046.38;5369526;26;20017;-81
2024/04/23 01:16:38;;;;;;;17.65;11.25;;;0.50;99.90;;;-144.05;82.60;57037.88;5367027;26;20342;-81
2024/04/23 01:19:15;;;;;;;20.42;11.60;;;-3.10;99.90;;;-144.05;82.73;57061.22;5380660;26;20032;-81
2024/04/23 01:22:11;;;;;;;16.25;10.48;;;-2.60;99.90;;;-144.05;82.84;57035.75;5380741;26;20020;-81
2024/04/23 01:24:53;;;;;;;17.77;11.80;;;0.40;99.90;;;-144.05;82.96;57035.75;5379949;26;20018;-80
2024/04/23 01:27:20;;;;;;;17.67;9.70;;;;;;;-144.05;82.69;57056.97;5378356;26;20074;-82
2024/04/23 01:29:48;;;;;;;16.70;10.65;;;-3.30;99.90;;;-144.05;82.74;57056.97;5378353;26;20528;-81
2024/04/23 01:32:16;;;;;;;13.57;9.77;;;-2.90;99.90;;;-144.05;82.83;57050.63;5380057;26;20043;-82
2024/04/23 01:34:44;;;;;;;16.83;10.18;;;;;;;-144.05;82.91;57069.72;5379873;26;20035;-82
2024/04/23 01:37:10;;;;;;;14.23;9.45;;;-3.20;99.90;;;-144.05;82.73;57033.63;5379636;26;20004;-81
2024/04/23 01:39:39;;;;;;;16.60;11.15;;;0.60;99.90;;;-144.05;82.91;57059.09;5363204;26;20000;-82
2024/04/23 01:42:08;;;;;;;16.70;10.73;;;0.40;99.90;;;-144.05;82.91;57063.34;5381171;26;20101;-83
2024/04/23 01:44:35;;;;;;;16.58;10.30;;;-3.40;99.90;;;-144.05;82.84;57048.50;5380551;26;20338;-82
2024/04/23 01:47:01;;;;;;;15.65;9.75;;;-3.60;99.90;;;-144.05;82.89;57048.50;5381602;26;20044;-82
2024/04/23 01:49:27;;;;;;;14.63;10.00;;;-3.20;99.90;;;-144.05;82.81;57042.13;5362691;26;20001;-80
2024/04/23 01:51:54;;;;;;;18.52;9.57;;;0.30;99.90;;;-144.05;82.69;57044.25;5376835;26;20011;-82
2024/04/23 01:54:20;;;;;;;14.45;9.60;;;-3.50;99.90;;;-144.05;82.81;57046.38;5380497;26;20452;-83
2024/04/23 01:56:46;;;;;;;18.35;11.48;;;-3.50;99.90;;;-144.05;82.95;57050.63;5383214;26;20000;-82
2024/04/23 01:59:12;;;;;;;18.73;11.20;;;;;;;-144.05;82.97;57048.50;5380611;26;20055;-83
2024/04/23 02:01:47;;;;;;;17.13;10.40;;;-3.30;99.90;;;-144.05;83.16;57059.09;5381471;26;20015;-83
2024/04/23 02:04:14;;;;;;;13.97;9.70;;;-3.60;99.90;;;-144.05;83.14;57069.72;5369416;26;20015;-82
2024/04/23 02:06:43;;;;;;;17.88;10.38;;;-3.40;99.90;;;-144.05;83.35;57063.34;5380977;26;20000;-82
2024/04/23 02:09:09;;;;;;;15.57;9.65;;;-3.60;99.90;;;-144.05;83.36;57025.13;5371384;26;20453;-81
2024/04/23 02:11:35;;;;;;;17.50;10.88;;;-3.60;99.90;;;-144.05;83.23;57054.88;5384200;26;20074;-83
2024/04/23 02:14:01;;;;;;;16.63;9.95;;;;;;;-144.05;83.55;57090.97;5385100;26;20500;-84
2024/04/23 02:16:27;;;;;;;19.10;10.68;;;-3.90;99.90;;;-144.05;83.61;57061.22;5382624;26;20079;-82
2024/04/23 02:18:53;;;;;;;18.88;11.30;;;-3.80;99.90;;;-144.05;83.53;57056.97;5384680;26;20012;-83
2024/04/23 02:21:19;;;;;;;18.85;10.27;;;-3.50;99.90;;;-144.05;83.45;57063.34;5384077;26;20066;-83
2024/04/23 02:23:45;;;;;;;17.48;10.43;;;-3.80;99.90;;;-144.05;83.16;57082.47;5391361;26;20010;-82
2024/04/23 02:26:13;;;;;;;18.10;11.02;;;-3.70;99.90;;;-144.05;83.42;57059.09;5386695;26;20016;-82
2024/04/23 02:28:39;;;;;;;19.70;11.25;;;;;;;-144.05;83.46;57073.97;5364427;26;20021;-82
2024/04/23 02:31:06;;;;;;;16.55;10.13;;;;;;;-144.05;83.46;57065.47;5368330;26;20032;-82
2024/04/23 02:33:32;;;;;;;16.40;9.95;;;;;;;-144.05;83.45;57063.34;5402965;26;20070;-82
2024/04/23 02:35:58;;;;;;;16.63;10.52;;;;;;;-144.05;83.38;57052.75;5382693;26;20004;-81
2024/04/23 02:38:24;;;;;;;16.92;10.32;;;;;;;-144.05;83.55;57065.47;5386718;26;20503;-83
2024/04/23 02:40:50;;;;;;;20.73;10.73;;;-3.70;99.90;;;-144.05;83.42;57069.72;5384301;26;20011;-81
2024/04/23 02:43:16;;;;;;;20.20;11.38;;;;;;;-144.05;83.38;57078.22;5383901;26;20004;-82
2024/04/23 02:45:42;;;;;;;17.90;11.05;;;-3.80;99.90;;;-144.05;83.46;57029.38;5382404;26;20004;-81
2024/04/23 02:48:08;;;;;;;19.40;10.10;;;;;;;-144.05;83.46;57071.84;5383621;26;20000;-82
2024/04/23 02:50:34;;;;;;;17.90;11.48;;;;;;;-144.05;83.40;57097.34;5383357;26;20008;-82
2024/04/23 02:53:01;;;;;;;18.00;10.55;;;;;;;-144.05;83.67;57084.59;5378469;26;20015;-83
2024/04/23 02:55:27;;;;;;;19.80;11.18;;;;;;;-144.05;83.46;57042.13;5383453;26;20008;-82
2024/04/23 02:57:53;;;;;;;20.30;11.02;;;-3.90;99.90;;;-144.05;83.51;57048.50;5382153;26;19996;-82
2024/04/23 03:00:19;;;;;;;15.50;10.75;;;;;;;-144.05;83.43;57080.34;5384930;26;20029;-83
2024/04/23 03:02:45;;;;;;;20.90;12.30;;;-3.60;99.90;;;-144.05;83.62;57090.97;5388205;26;20004;-81
2024/04/23 03:05:11;;;;;;;18.63;11.45;;;-3.80;99.90;;;-144.05;83.67;57061.22;5387654;26;20011;-82
2024/04/23 03:07:38;;;;;;;17.98;10.82;;;;;;;-144.05;83.56;57069.72;5388263;26;20141;-83
2024/04/23 03:10:06;;;;;;;18.40;11.45;;;;;;;-144.05;83.13;57056.97;5411538;26;19996;-81
2024/04/23 03:12:32;;;;;;;20.73;11.77;;;;;;;-144.05;83.14;57054.88;5397554;26;20480;-82
2024/04/23 03:14:58;;;;;;;18.35;11.63;;;-3.40;99.90;;;-144.05;83.48;57069.72;5384727;26;20000;-82
2024/04/23 03:17:25;;;;;;;20.45;11.40;;;-0.30;99.90;;;-144.05;83.07;57065.47;5381002;26;20346;-83
2024/04/23 03:19:50;;;;;;;19.33;12.30;;;-3.60;99.90;;;-144.05;83.63;57056.97;5385074;26;20081;-81
2024/04/23 03:22:16;;;;;;;18.58;11.48;;;-3.50;99.90;;;-144.05;83.35;57071.84;5374960;26;20462;-83
2024/04/23 03:24:42;;;;;;;21.08;11.73;;;-3.40;99.90;;;-144.05;83.83;57067.59;5417438;26;20004;-82
2024/04/23 03:27:08;;;;;;;20.08;11.88;;;-4.00;99.90;;;-144.05;83.85;57029.38;5401931;26;20011;-81
2024/04/23 03:29:34;;;;;;;21.13;12.23;;;;;;;-144.05;83.83;57027.25;5424606;26;20013;-80
2024/04/23 03:32:05;;;;;;;20.60;11.68;;;-3.60;99.90;;;-144.05;84.12;57059.09;5402538;26;20015;-81
2024/04/23 03:34:32;;;;;;;19.77;12.00;;;-0.30;99.90;;;-144.05;84.36;57054.88;5389631;26;20466;-81
2024/04/23 03:36:59;;;;;;;19.67;11.73;;;;;;;-144.05;84.31;57065.47;5365993;26;20004;-81
2024/04/23 03:39:25;;;;;;;23.67;12.25;;;-4.00;99.90;;;-144.05;84.41;57050.63;5411286;26;20015;-83
2024/04/23 03:41:59;;;;;;;33.53;17.85;;;-3.50;99.90;;;-144.05;84.26;57023.00;5383406;26;20004;-80
2024/04/23 03:44:27;;;;;;;25.55;14.73;;;-3.50;99.90;;;-144.05;84.24;57044.25;5382084;26;20010;-81
2024/04/23 03:46:55;;;;;;;33.25;20.33;;;-3.60;99.90;;;-144.05;84.29;57052.75;5393956;26;20004;-81
2024/04/23 03:49:21;;;;;;;21.75;12.52;;;-3.90;99.90;;;-144.05;83.82;57078.22;5398400;26;19998;-81
2024/04/23 03:51:47;;;;;;;18.10;11.55;;;-4.20;99.90;;;-144.05;83.92;57061.22;5391843;26;20078;-83
2024/04/23 03:54:13;;;;;;;17.73;11.55;;;-3.70;99.90;;;-144.05;83.78;57076.09;5401030;26;20016;-81
2024/04/23 03:56:39;;;;;;;21.52;12.65;;;-3.60;99.90;;;-144.05;84.04;57054.88;5342861;26;20003;-82
2024/04/23 03:59:05;;;;;;;18.98;12.45;;;;;;;-144.05;84.23;57063.34;5273951;26;20006;-82
2024/04/23 04:01:31;;;;;;;22.08;13.35;;;1.30;99.90;;;-144.05;84.01;57056.97;5203409;26;20500;-81
2024/04/23 04:06:42;;;;;;;17.90;10.55;;;-4.00;99.90;;;-144.05;83.96;57052.75;4905256;29;20498;-81
2024/04/23 04:09:07;;;;;;;20.75;11.73;;;-3.80;99.90;;;-144.05;83.76;57027.25;4900826;29;20010;-81
2024/04/23 04:11:35;;;;;;;20.55;11.77;;;;;;;-144.05;83.84;57073.97;4903471;29;20011;-83
2024/04/23 04:14:02;;;;;;;69.38;39.85;;;-0.60;99.90;;;-144.05;83.99;57052.75;4904238;29;20010;-82
2024/04/23 04:16:29;;;;;;;31.20;17.10;;;-3.50;99.90;;;-144.05;84.19;57076.09;4904253;29;20039;-83
2024/04/23 04:18:56;;;;;;;26.02;15.50;;;-3.60;99.90;;;-144.05;84.18;57082.47;4904928;29;20026;-81
2024/04/23 04:21:22;;;;;;;24.60;14.93;;;-3.80;99.90;;;-144.05;83.73;57029.38;4904744;29;20006;-82
2024/04/23 04:23:48;;;;;;;26.45;14.77;;;-3.60;99.90;;;-144.05;84.11;57071.84;4910873;29;20026;-81
2024/04/23 04:26:15;;;;;;;18.90;12.10;;;;;;;-144.05;84.03;57063.34;4936222;29;20015;-82
2024/04/23 04:28:42;;;;;;;19.08;11.07;;;;;;;-144.05;84.21;57052.75;4913884;29;20014;-81
2024/04/23 04:31:08;;;;;;;17.75;10.27;;;;;;;-144.05;84.20;57059.09;4903439;29;20357;-82
2024/04/23 04:33:37;;;;;;;18.63;10.80;;;-3.80;99.90;;;-144.05;84.21;57065.47;4902058;29;20011;-81
2024/04/23 04:36:04;;;;;;;18.08;10.60;;;-3.60;99.90;;;-144.05;84.24;57046.38;4901854;29;20109;-81
2024/04/23 04:38:31;;;;;;;18.63;11.27;;;-3.40;99.90;;;-144.05;84.10;57088.84;4903354;29;20006;-81
2024/04/23 04:40:58;;;;;;;18.63;11.63;;;-3.80;99.90;;;-144.05;83.99;57065.47;4902565;29;20106;-82
2024/04/23 04:43:25;;;;;;;18.55;11.88;;;;;;;-144.05;84.21;57061.22;4902290;29;20014;-82
2024/04/23 04:45:51;;;;;;;19.17;11.85;;;;;;;-144.05;84.01;57069.72;4902267;29;20014;-82
2024/04/23 04:48:17;;;;;;;21.42;11.88;;;-3.60;99.90;;;-144.05;84.17;57046.38;4901214;29;20026;-81
2024/04/23 04:50:43;;;;;;;17.17;10.55;;;;;;;-144.05;84.18;57069.72;4904257;29;20015;-80
2024/04/23 04:53:09;;;;;;;16.83;10.75;;;;;;;-144.05;84.12;57090.97;4907292;29;20062;-82
2024/04/23 04:55:35;;;;;;;19.92;12.25;;;;;;;-144.05;84.28;57056.97;4911927;29;20348;-84
2024/04/23 04:58:01;;;;;;;21.73;11.55;;;-3.40;99.90;;;-144.05;84.16;57033.63;4919183;29;20078;-80
2024/04/23 05:00:27;;;;;;;23.33;12.00;;;;;;;-144.05;84.14;57065.47;4917461;29;20010;-81
2024/04/23 05:02:54;;;;;;;21.05;12.48;;;;;;;-144.05;83.71;57042.13;4771676;29;962359;-81
2024/04/23 05:05:20;;;;;;;20.55;11.82;;;;;;;-144.05;84.09;57071.84;4889168;28;20642;-82
2024/04/23 05:07:46;;;;;;;22.73;13.45;;;;;;;-144.05;84.27;57059.09;4926632;28;20022;-81
2024/04/23 05:10:12;;;;;;;21.38;12.38;;;;;;;-144.05;84.08;57078.22;4892058;29;20007;-82
2024/04/23 05:12:41;;;;;;;23.80;12.50;;;;;;;-144.05;84.00;57044.25;4890588;29;20019;-80
2024/04/23 05:15:07;;;;;;;20.27;12.48;;;;;;;-144.05;83.99;57065.47;4877253;29;20034;-81
2024/04/23 05:17:34;;;;;;;25.60;15.05;;;;;;;-144.05;84.12;57086.72;4895203;29;20460;-80
2024/04/23 05:20:02;;;;;;;21.30;12.70;;;-3.40;99.90;;;-144.05;83.66;57044.25;4875589;29;20022;-82
2024/04/23 05:22:28;;;;;;;21.13;13.50;;;;;;;-144.05;83.77;57050.63;4897005;29;20116;-82
2024/04/23 05:24:54;;;;;;;18.65;12.25;;;;;;;-144.05;83.91;57054.88;4874440;29;20015;-82
2024/04/23 05:27:20;;;;;;;21.35;12.95;;;;;;;-144.05;83.76;57052.75;4896125;29;20316;-81
2024/04/23 05:29:53;;;;;;;24.42;13.68;;;-2.80;99.90;;;-144.05;83.93;57012.38;4885497;29;20027;-80
2024/04/23 05:35:06;;;;;;;29.02;14.35;;;-2.50;99.90;;;-144.05;84.28;57040.00;4878695;29;20431;-81
2024/04/23 05:37:33;;;;;;;21.15;11.80;;;-2.10;99.90;;;-144.05;85.21;57048.50;4907670;29;20011;-82
2024/04/23 05:39:59;;;;;;;17.63;12.15;;;-1.80;99.90;;;-144.05;85.28;57012.38;4905974;29;20007;-83
2024/04/23 05:42:25;;;;;;;18.60;10.95;;;-1.90;99.90;;;-144.05;85.08;57006.00;4901286;29;20034;-81
2024/04/23 05:44:51;;;;;;;16.23;10.57;;;;;;;-144.05;84.86;56997.50;4908364;29;20012;-82
2024/04/23 05:47:17;;;;;;;18.52;10.98;;;-1.30;99.90;;;-144.05;84.22;56997.50;4873481;29;20007;-81
2024/04/23 05:50:58;;;;;;;18.42;11.43;;;-1.10;99.90;;;-144.05;82.44;57006.00;4908636;29;20007;-83
2024/04/23 05:54:39;;;;;;;17.48;11.00;;;2.30;99.90;;;-144.05;80.74;56980.53;4863075;29;20012;-82
2024/04/23 05:57:08;;;;;;;17.98;10.73;;;-0.40;99.90;;;-144.05;79.76;56984.78;4897004;29;20030;-81
2024/04/23 05:59:36;;;;;;;17.48;10.05;;;0.40;99.90;;;-144.05;78.49;56963.53;4895713;29;20008;-84
2024/04/23 06:02:02;;;;;;;14.27;9.88;;;1.50;99.90;;;-144.05;76.45;56967.78;4977333;27;20001;-82
2024/04/23 06:04:27;;;;;;;15.13;10.23;;;1.30;99.90;;;-144.05;74.53;56961.41;5038090;27;20023;-85
2024/04/23 06:06:54;;;;;;;13.20;9.48;;;;;;;-144.05;73.57;56999.63;5191393;27;20022;-81
2024/04/23 06:09:20;;;;;;;15.68;9.50;;;0.80;99.90;;;-144.05;72.61;56963.53;5157170;27;20004;-81
2024/04/23 06:11:45;;;;;;;16.33;10.50;;;5.50;99.90;;;-144.05;71.17;56948.66;5173608;27;20020;-84
2024/04/23 06:14:11;;;;;;;17.88;10.00;;;5.20;99.90;;;-144.05;69.31;56955.03;5187087;27;20354;-83
2024/04/23 06:16:37;;;;;;;13.48;9.80;;;;;;;-144.05;67.42;56948.66;5185193;27;20012;-82
2024/04/23 06:19:07;;;;;;;14.25;9.30;;;1.60;99.90;;;-144.05;65.82;56963.53;5157923;27;20014;-84
2024/04/23 06:21:33;;;;;;;13.75;8.98;;;1.60;99.90;;;-144.05;64.39;56955.03;5198181;27;20084;-84
2024/04/23 06:24:00;;;;;;;19.15;9.73;;;;;;;-144.05;64.03;56976.28;5176002;27;20000;-82
2024/04/23 06:26:27;;;;;;;16.23;9.80;;;6.00;99.90;;;-144.05;63.04;56961.41;5193766;27;20015;-83
2024/04/23 06:28:56;;;;;;;16.00;9.57;;;1.50;99.90;;;-144.05;62.87;56952.91;5188993;27;20011;-81
2024/04/23 06:31:25;;;;;;;13.40;8.73;;;2.90;99.90;;;-144.05;63.03;56948.66;5192538;27;20009;-83
2024/04/23 06:33:51;;;;;;;13.50;9.40;;;2.90;99.90;;;-144.05;62.33;56982.66;5147849;27;20434;-83
2024/04/23 06:36:17;;;;;;;13.88;9.07;;;4.50;99.90;;;-144.05;62.37;56965.66;5174220;27;20000;-83
2024/04/23 06:38:42;;;;;;;17.98;9.35;;;7.00;99.90;;;-144.05;60.67;56955.03;5152142;27;20016;-84
2024/04/23 06:41:09;;;;;;;17.58;9.57;;;7.60;99.90;;;-144.05;59.52;56952.91;5192349;27;20009;-82
2024/04/23 06:43:35;;;;;;;17.38;9.00;;;;;;;-144.05;58.71;56944.41;5226873;27;20026;-83
2024/04/23 06:46:01;;;;;;;15.40;8.88;;;7.00;99.90;;;-144.05;59.40;56952.91;5187798;27;20005;-82
2024/04/23 06:48:27;;;;;;;13.23;8.50;;;7.60;99.90;;;-144.05;57.74;56940.16;5199070;27;20430;-82
2024/04/23 06:50:53;;;;;;;13.98;9.43;;;4.60;99.90;;;-144.05;56.40;56952.91;5192164;27;20491;-83
2024/04/23 06:53:19;;;;;;;15.13;9.18;;;;;;;-144.05;57.04;56929.53;5218498;27;20023;-83
2024/04/23 06:55:46;;;;;;;15.13;9.18;;;;;;;-144.05;56.98;56957.16;5170440;27;20016;-83
2024/04/23 06:58:11;;;;;;;18.58;9.70;;;7.80;99.90;;;-144.05;56.45;56935.91;5147824;27;20420;-83
2024/04/23 07:00:37;;;;;;;14.68;8.98;;;7.60;99.90;;;-144.05;55.63;56929.53;5200845;27;20060;-83
2024/04/23 07:03:04;;;;;;;15.65;8.52;;;5.00;99.90;;;-144.05;55.82;56967.78;5144966;27;20142;-85
2024/04/23 07:05:30;;;;;;;17.63;9.80;;;;;;;-144.05;55.31;56935.91;5220771;27;20340;-82
2024/04/23 07:07:58;;;;;;;13.68;8.30;;;7.10;99.90;;;-144.05;54.94;56925.28;5231775;27;19999;-83
2024/04/23 07:10:24;;;;;;;16.42;9.00;;;7.50;99.90;;;-144.05;53.36;56944.41;5241776;27;20453;-84
2024/04/23 07:12:50;;;;;;;13.60;8.00;;;7.20;99.90;;;-144.05;52.40;56959.28;5246560;27;20014;-83
2024/04/23 07:15:15;;;;;;;10.88;8.10;;;10.60;99.90;;;-144.05;51.32;56929.53;5236023;27;19999;-82
2024/04/23 07:17:42;;;;;;;10.38;7.15;;;;;;;-144.05;49.79;56944.41;5242676;27;20082;-85
2024/04/23 07:20:08;;;;;;;12.27;7.55;;;7.80;99.90;;;-144.05;49.76;56929.53;5249654;27;20003;-81
2024/04/23 07:22:34;;;;;;;12.02;7.82;;;;;;;-144.05;48.69;56908.31;5248373;27;19999;-84
2024/04/23 07:25:00;;;;;;;10.27;6.80;;;10.30;99.90;;;-144.05;48.35;56940.16;5244104;27;20015;-85
2024/04/23 07:27:25;;;;;;;10.18;6.40;;;11.00;99.90;;;-144.05;45.95;56929.53;5246225;27;20410;-84
2024/04/23 07:29:52;;;;;;;10.50;5.68;;;;;;;-144.05;44.83;56950.78;5244905;27;20017;-84
2024/04/23 07:32:18;;;;;;;9.68;5.50;;;10.80;99.90;;;-144.05;42.70;56931.66;5234075;27;20015;-84
2024/04/23 07:34:44;;;;;;;6.45;4.05;;;;;;;-144.05;41.94;56921.06;5254360;27;20003;-84
2024/04/23 07:37:12;;;;;;;6.97;4.38;;;10.90;99.90;;;-144.05;39.37;56923.19;5248605;27;20537;-83
2024/04/23 07:39:41;;;;;;;7.07;3.80;;;13.70;99.90;;;-144.05;39.95;56916.81;5246624;27;20422;-83
2024/04/23 07:42:07;;;;;;;7.38;4.72;;;;;;;-144.05;39.84;56910.44;5249908;27;20003;-84
2024/04/23 07:44:33;;;;;;;7.78;4.00;;;7.40;99.90;;;-144.05;39.12;56925.28;5249354;27;20452;-82
2024/04/23 07:46:58;;;;;;;4.65;3.20;;;13.70;99.90;;;-144.05;38.08;56946.53;5247751;27;20003;-84
2024/04/23 07:49:25;;;;;;;4.93;3.22;;;;;;;-144.05;38.10;56950.78;5249909;27;19999;-83
2024/04/23 07:51:51;;;;;;;8.85;3.85;;;;;;;-144.05;37.03;56910.44;5242435;27;20018;-84
2024/04/23 07:54:17;;;;;;;4.32;3.60;;;;;;;-144.05;35.95;56938.03;5234797;27;20040;-83
2024/04/23 07:56:43;;;;;;;3.92;2.63;;;;;;;-144.05;34.61;56914.69;5257998;27;20126;-84
2024/04/23 07:59:09;;;;;;;4.05;3.10;;;13.70;98.90;;;-144.05;33.75;56938.03;5242572;27;20023;-83
2024/04/23 08:01:35;;;;;;;5.13;2.90;;;8.20;98.10;;;-144.05;34.53;56929.53;5232364;27;20003;-84
2024/04/23 08:04:01;;;;;;;3.28;2.25;;;8.50;98.70;;;-144.05;35.02;56910.44;5383250;26;20349;-82
2024/04/23 08:06:27;;;;;;;4.13;2.85;;;;;;;-144.05;34.08;56918.94;5397268;26;19996;-84
2024/04/23 08:08:53;;;;;;;4.47;2.47;;;14.60;97.90;;;-144.05;33.31;56910.44;5352310;26;20004;-83
2024/04/23 08:11:19;;;;;;;3.35;2.30;;;8.50;93.50;;;-144.05;33.20;56929.53;5379597;26;20031;-84
2024/04/23 08:13:45;;;;;;;2.88;2.20;;;14.10;95.10;;;-144.05;32.89;56925.28;5374176;26;20015;-83
2024/04/23 08:16:11;;;;;;;5.18;3.40;;;8.80;94.70;;;-144.05;32.90;56931.66;5344690;26;20008;-83
2024/04/23 08:18:38;;;;;;;5.75;3.70;;;;;;;-144.05;32.76;56938.03;5389273;26;20456;-82
2024/04/23 08:21:05;;;;;;;5.45;3.35;;;14.40;96.40;;;-144.05;33.16;56916.81;5386531;26;20016;-82
2024/04/23 08:23:33;;;;;;;6.20;3.20;;;14.20;94.80;;;-144.05;32.63;56921.06;5377483;26;20086;-84
2024/04/23 08:26:00;;;;;;;4.65;3.42;;;15.00;95.20;;;-144.05;33.18;56944.41;5375609;26;20011;-82
2024/04/23 08:28:27;;;;;;;4.57;3.60;;;12.10;94.50;;;-144.05;33.09;56935.91;5383831;26;20010;-84
2024/04/23 08:30:53;;;;;;;4.93;3.55;;;14.60;95.00;;;-144.05;32.86;56944.41;5345013;26;20327;-83
2024/04/23 08:33:19;;;;;;;8.13;3.72;;;;;;;-144.05;32.21;56940.16;5378413;26;20015;-83
2024/04/23 08:35:45;;;;;;;6.65;3.35;;;;;;;-144.05;31.41;56927.41;5360223;26;20074;-83
2024/04/23 08:38:12;;;;;;;5.03;3.80;;;14.50;94.20;;;-144.05;31.82;56910.44;5354767;26;20000;-84
2024/04/23 08:40:40;;;;;;;4.53;3.00;;;8.60;90.30;;;-144.05;30.80;56916.81;5385168;26;20422;-83
2024/04/23 08:43:20;;;;;;;6.55;3.53;;;11.80;90.80;;;-144.05;30.63;56931.66;5364671;26;20031;-84
2024/04/23 08:45:48;;;;;;;6.80;3.22;;;12.30;91.30;;;-144.05;31.19;56921.06;5354253;26;20032;-84
2024/04/23 08:48:15;;;;;;;6.43;3.85;;;;;;;-144.05;31.28;56916.81;5342266;26;20004;-83
2024/04/23 08:50:44;;;;;;;6.18;3.30;;;9.70;87.10;;;-144.05;30.49;56916.81;5359398;26;20000;-84
2024/04/23 08:53:13;;;;;;;4.63;2.97;;;14.80;90.40;;;-144.05;30.57;56912.56;5384457;26;20019;-84
2024/04/23 08:55:44;;;;;;;6.03;3.05;;;12.50;87.10;;;-144.05;30.26;56929.53;5386335;26;20008;-84
2024/04/23 08:58:13;;;;;;;3.67;2.97;;;14.50;90.60;;;-144.05;30.39;56918.94;5355218;26;20407;-84
2024/04/23 09:00:41;;;;;;;4.88;2.85;;;14.80;90.20;;;-144.05;29.80;56944.41;5335913;26;20005;-85
2024/04/23 09:03:14;;;;;;;5.70;2.80;;;13.20;83.10;;;-144.05;29.22;56925.28;5385229;26;20015;-85
2024/04/23 09:05:43;;;;;;;4.07;2.65;;;9.90;79.70;;;-144.05;28.76;56942.28;5353610;26;20038;-84
2024/04/23 09:08:09;;;;;;;5.10;2.10;;;14.40;83.50;;;-144.05;29.06;56912.56;5348892;26;20079;-84
2024/04/23 09:10:35;;;;;;;5.22;2.10;;;;;;;-144.05;28.62;56944.41;5336572;26;20055;-84
2024/04/23 09:13:01;;;;;;;5.18;2.55;;;14.80;78.80;;;-144.05;28.20;56935.91;5331390;26;20004;-84
2024/04/23 09:15:27;;;;;;;3.33;2.08;;;13.90;81.10;;;-144.05;29.06;56927.41;5346290;26;20005;-83
2024/04/23 09:17:59;;;;;;;4.05;2.40;;;14.70;85.70;;;-144.05;29.93;56931.66;5339994;26;20013;-83
2024/04/23 09:20:25;;;;;;;3.65;2.33;;;14.10;79.10;;;-144.05;29.23;56935.91;5339532;26;20053;-82
2024/04/23 09:23:01;;;;;;;4.20;2.40;;;14.10;80.40;;;-144.05;29.53;56933.78;5336829;26;20500;-82
2024/04/23 09:25:37;;;;;;;4.63;3.22;;;7.80;85.90;;;-144.05;32.16;56916.81;5346089;26;20021;-84
2024/04/23 09:28:08;;;;;;;3.75;2.75;;;14.60;87.80;;;-144.05;31.62;56938.03;5343103;26;20491;-81
2024/04/23 09:30:38;;;;;;;3.03;2.63;;;14.00;84.00;;;-144.05;30.10;56931.66;5334518;26;20012;-85
2024/04/23 09:33:04;;;;;;;6.68;2.80;;;9.20;82.80;;;-144.05;30.08;56921.06;5332423;26;20002;-82
2024/04/23 09:35:30;;;;;;;3.35;2.35;;;;;;;-144.05;28.37;56933.78;5348068;26;20049;-83
2024/04/23 09:37:59;;;;;;;4.75;2.72;;;9.70;77.80;;;-144.05;28.34;56938.03;5328589;26;20020;-84
2024/04/23 09:40:25;;;;;;;3.22;2.40;;;;;;;-144.05;28.80;56923.19;5342325;26;20033;-83
2024/04/23 09:42:53;;;;;;;3.67;2.05;;;12.90;80.70;;;-144.05;29.50;56935.91;5339451;26;20075;-84
2024/04/23 09:45:26;;;;;;;5.13;2.80;;;13.00;73.70;;;-144.05;27.44;56908.31;5345079;26;20001;-84
2024/04/23 09:47:51;;;;;;;2.63;2.38;;;9.70;73.60;;;-144.05;27.76;56940.16;5323446;26;20124;-83
2024/04/23 09:50:19;;;;;;;3.65;2.75;;;14.40;78.60;;;-144.05;28.00;56950.78;5336879;26;20008;-83
2024/04/23 09:52:48;;;;;;;4.32;2.55;;;14.60;76.10;;;-144.05;27.95;56948.66;5347682;26;20001;-83
2024/04/23 09:55:19;;;;;;;4.43;2.40;;;13.00;74.50;;;-144.05;27.94;56918.94;5328170;26;20001;-82
2024/04/23 09:57:49;;;;;;;3.30;2.25;;;10.30;71.50;;;-144.05;27.00;56916.81;5365953;26;19997;-82
2024/04/23 10:00:15;;;;;;;4.30;2.67;;;10.30;73.30;;;-144.05;27.25;56946.53;5346230;26;20072;-82
2024/04/23 10:02:47;;;;;;;3.38;2.50;;;11.50;71.00;;;-144.05;27.16;56921.06;5370737;26;20055;-83
2024/04/23 10:05:28;;;;;;;3.38;2.60;;;11.70;68.90;;;-144.05;26.35;56906.19;5340038;26;20463;-84
2024/04/23 10:08:11;;;;;;;7.85;2.92;;;14.00;69.20;;;-144.05;26.35;56908.31;5345288;26;19997;-83
2024/04/23 10:10:50;;;;;;;3.75;2.30;;;12.40;72.90;;;-144.05;27.16;56923.19;5348232;26;19997;-83
2024/04/23 10:13:26;;;;;;;5.45;2.80;;;14.40;73.70;;;-144.05;27.52;56938.03;5338422;26;20013;-84
2024/04/23 10:16:04;;;;;;;6.47;2.55;;;11.80;69.80;;;-144.05;26.60;56925.28;5348016;26;20005;-82
2024/04/23 10:18:43;;;;;;;5.10;2.50;;;12.00;70.30;;;-144.05;27.32;56933.78;5348242;26;20075;-83
2024/04/23 10:21:16;;;;;;;3.53;2.58;;;16.10;70.20;;;-144.05;26.86;56921.06;5347629;26;20011;-81
2024/04/23 10:23:43;;;;;;;7.95;2.53;;;14.80;71.00;;;-144.05;26.71;56929.53;5348277;26;20009;-83
2024/04/23 10:26:13;;;;;;;2.70;2.17;;;13.70;71.20;;;-144.05;27.85;56942.28;5339868;26;20194;-83
2024/04/23 10:28:42;;;;;;;5.65;2.88;;;12.70;72.90;;;-144.05;28.37;56938.03;5365377;26;20017;-83